Time;durP1;ratioP1;P1;durP2;ratioP2;P2;SDS_P1;SDS_P2;PMS_P1;PMS_P2;Temp;Humidity;BMP_temperature;BMP_pressure;BME280_temperature;BME280_humidity;BME280_pressure;Samples;Min_cycle;Max_cycle;Signal;HPM_P1;HPM_P2
2022/10/03 00:01:31;;;;;;;10.63;1.52;;;10.60;99.90;;;;;;5066427;28;20893;-70
2022/10/03 00:04:41;;;;;;;9.65;1.90;;;10.50;99.90;;;;;;5072799;28;20089;-70
2022/10/03 00:07:37;;;;;;;6.78;1.77;;;10.50;99.90;;;;;;5029636;28;20052;-70
2022/10/03 00:10:06;;;;;;;13.13;2.00;;;10.50;99.90;;;;;;5064029;28;20047;-70
2022/10/03 00:12:46;;;;;;;9.55;2.08;;;10.50;99.90;;;;;;5077715;28;20046;-70
2022/10/03 00:15:28;;;;;;;17.10;1.65;;;10.50;99.90;;;;;;5074427;28;20528;-70
2022/10/03 00:18:17;;;;;;;19.00;2.30;;;10.50;99.90;;;;;;5057178;28;20102;-71
2022/10/03 00:21:21;;;;;;;8.40;1.27;;;10.50;99.90;;;;;;5057536;28;20032;-71
2022/10/03 00:24:01;;;;;;;17.77;1.90;;;10.50;99.90;;;;;;5074426;28;20123;-71
2022/10/03 00:26:42;;;;;;;14.97;2.40;;;10.70;99.90;;;;;;5068970;28;20531;-70
2022/10/03 00:29:23;;;;;;;15.43;1.75;;;10.50;99.90;;;;;;5066935;28;20078;-70
2022/10/03 00:32:01;;;;;;;12.18;1.95;;;10.50;99.90;;;;;;5067189;28;20047;-70
2022/10/03 00:35:14;;;;;;;15.32;1.80;;;10.70;99.90;;;;;;5064764;28;20566;-70
2022/10/03 00:38:03;;;;;;;10.00;1.60;;;10.50;99.90;;;;;;5064809;28;20551;-70
2022/10/03 00:40:35;;;;;;;11.65;2.25;;;10.50;99.90;;;;;;5065841;28;20048;-70
2022/10/03 00:43:30;;;;;;;14.57;2.22;;;10.50;99.90;;;;;;5067231;28;20052;-71
2022/10/03 00:46:27;;;;;;;10.00;1.90;;;10.50;99.90;;;;;;5088205;28;20084;-70
2022/10/03 00:49:39;;;;;;;11.70;1.55;;;10.50;99.90;;;;;;5070194;28;20084;-71
2022/10/03 00:52:40;;;;;;;11.10;1.52;;;10.50;99.90;;;;;;5042694;28;20142;-70
2022/10/03 00:55:41;;;;;;;11.00;1.75;;;10.60;99.90;;;;;;5073962;28;20103;-70
2022/10/03 00:58:10;;;;;;;15.37;1.83;;;10.50;99.90;;;;;;5068737;28;20044;-70
2022/10/03 01:00:37;;;;;;;14.80;1.77;;;10.60;99.90;;;;;;5065557;28;20044;-71
2022/10/03 01:03:24;;;;;;;15.35;2.22;;;10.60;99.90;;;;;;5076410;28;20578;-70
2022/10/03 01:06:35;;;;;;;11.60;1.77;;;10.60;99.90;;;;;;5079127;28;20397;-71
2022/10/03 01:09:18;;;;;;;12.68;1.92;;;10.50;99.90;;;;;;5073918;28;20054;-70
2022/10/03 01:11:50;;;;;;;9.73;1.80;;;10.50;99.90;;;;;;5074318;28;20044;-70
2022/10/03 01:15:05;;;;;;;12.77;1.75;;;10.50;99.90;;;;;;5065585;28;20048;-70
2022/10/03 01:18:00;;;;;;;12.55;1.73;;;10.50;99.90;;;;;;5075795;28;20529;-70
2022/10/03 01:20:54;;;;;;;9.77;1.42;;;10.50;99.90;;;;;;5066593;28;20064;-71
2022/10/03 01:23:48;;;;;;;14.18;2.13;;;10.50;99.90;;;;;;5054788;28;20113;-69
2022/10/03 01:26:41;;;;;;;9.23;1.30;;;10.50;99.90;;;;;;5050878;28;20045;-70
2022/10/03 01:32:03;;;;;;;11.35;1.67;;;10.50;99.90;;;;;;5065515;28;20060;-69
2022/10/03 01:34:53;;;;;;;11.07;1.60;;;10.50;99.90;;;;;;5063294;28;21351;-70
2022/10/03 01:37:43;;;;;;;10.40;2.00;;;10.50;99.90;;;;;;5057215;28;20702;-70
2022/10/03 01:40:32;;;;;;;10.90;1.60;;;10.50;99.90;;;;;;5064273;28;21979;-69
2022/10/03 01:43:14;;;;;;;14.35;2.25;;;10.40;99.90;;;;;;5067321;28;20045;-69
2022/10/03 01:45:46;;;;;;;;;;;10.40;99.90;;;;;;5077290;28;20576;-69
2022/10/03 01:48:21;;;;;;;9.68;1.40;;;10.40;99.90;;;;;;5065500;28;19928;-69
2022/10/03 01:50:52;;;;;;;9.32;1.95;;;10.40;99.90;;;;;;5074559;28;20050;-69
2022/10/03 01:53:46;;;;;;;13.67;1.93;;;10.40;99.90;;;;;;5077753;28;20114;-70
2022/10/03 01:56:34;;;;;;;7.78;1.67;;;10.40;99.90;;;;;;5067218;28;20311;-70
2022/10/03 01:59:09;;;;;;;9.20;1.45;;;10.40;99.90;;;;;;5083232;28;20124;-69
2022/10/03 02:02:00;;;;;;;9.48;1.73;;;10.40;99.90;;;;;;5069697;28;20058;-69
2022/10/03 02:04:44;;;;;;;4.80;1.17;;;10.30;99.90;;;;;;5049812;28;20105;-69
2022/10/03 02:07:16;;;;;;;6.20;1.35;;;10.40;99.90;;;;;;5081942;28;20059;-70
2022/10/03 02:10:07;;;;;;;10.40;1.50;;;10.30;99.90;;;;;;5061744;28;20045;-70
2022/10/03 02:12:47;;;;;;;13.98;1.70;;;10.40;99.90;;;;;;5075407;28;20049;-70
2022/10/03 02:15:19;;;;;;;11.10;1.58;;;10.40;99.90;;;;;;5073378;28;20056;-70
2022/10/03 02:17:51;;;;;;;12.35;1.58;;;10.40;99.90;;;;;;5086334;28;20109;-69
2022/10/03 02:20:54;;;;;;;11.15;1.73;;;10.40;99.90;;;;;;5078834;28;20115;-70
2022/10/03 02:23:23;;;;;;;11.65;1.60;;;10.40;99.90;;;;;;5066806;28;20048;-70
2022/10/03 02:26:18;;;;;;;14.65;1.85;;;10.40;99.90;;;;;;5064235;28;20040;-70
2022/10/03 02:29:10;;;;;;;12.30;1.73;;;10.40;99.90;;;;;;5077616;28;20420;-70
2022/10/03 02:31:35;;;;;;;10.82;1.70;;;10.40;99.90;;;;;;5072958;28;20048;-70
2022/10/03 02:34:46;;;;;;;11.30;1.83;;;10.40;99.90;;;;;;5076319;28;20090;-69
2022/10/03 02:37:49;;;;;;;10.63;2.70;;;10.40;99.90;;;;;;5076006;28;20519;-70
2022/10/03 02:40:33;;;;;;;9.50;1.27;;;10.40;99.90;;;;;;5070206;28;20532;-70
2022/10/03 02:43:19;;;;;;;10.85;1.50;;;10.40;99.90;;;;;;5075685;28;20392;-70
2022/10/03 02:46:09;;;;;;;15.30;2.05;;;10.40;99.90;;;;;;5059072;28;20182;-70
2022/10/03 02:48:56;;;;;;;9.98;1.25;;;10.40;99.90;;;;;;5072871;28;20379;-70
2022/10/03 02:52:00;;;;;;;11.90;1.73;;;10.40;99.90;;;;;;5075415;28;20494;-70
2022/10/03 02:54:49;;;;;;;9.63;1.60;;;10.40;99.90;;;;;;5073248;28;20560;-70
2022/10/03 02:57:52;;;;;;;11.85;1.90;;;10.40;99.90;;;;;;5068871;28;20063;-69
2022/10/03 03:00:20;;;;;;;11.45;1.58;;;10.50;99.90;;;;;;5085823;28;20055;-69
2022/10/03 03:03:00;;;;;;;9.35;1.77;;;10.50;99.90;;;;;;5075282;28;20519;-69
2022/10/03 03:06:03;;;;;;;12.77;1.73;;;10.50;99.90;;;;;;5056411;28;20054;-69
2022/10/03 03:09:07;;;;;;;7.95;2.08;;;10.50;99.90;;;;;;5056299;28;20040;-70
2022/10/03 03:11:39;;;;;;;11.68;1.70;;;10.50;99.90;;;;;;5067726;28;20524;-70
2022/10/03 03:14:08;;;;;;;;;;;10.50;99.90;;;;;;5061055;28;20519;-70
2022/10/03 03:16:47;;;;;;;13.25;1.92;;;10.60;99.90;;;;;;5059228;28;19920;-70
2022/10/03 03:19:25;;;;;;;10.95;2.03;;;10.60;99.90;;;;;;5077381;28;20043;-70
2022/10/03 03:22:15;;;;;;;18.20;2.45;;;10.60;99.90;;;;;;5058846;28;20036;-70
2022/10/03 03:24:46;;;;;;;13.77;2.13;;;10.60;99.90;;;;;;5070381;28;20142;-70
2022/10/03 03:27:46;;;;;;;11.68;2.00;;;10.60;99.90;;;;;;5071085;28;20039;-70
2022/10/03 03:30:19;;;;;;;12.88;2.08;;;10.60;99.90;;;;;;5074582;28;20052;-71
2022/10/03 03:33:06;;;;;;;10.45;1.90;;;10.50;99.90;;;;;;5073937;28;20076;-69
2022/10/03 03:36:09;;;;;;;9.80;2.20;;;10.60;99.90;;;;;;5077581;28;20200;-70
2022/10/03 03:38:46;;;;;;;10.45;2.20;;;10.50;99.90;;;;;;5057456;28;20036;-70
2022/10/03 03:41:39;;;;;;;13.70;2.15;;;10.60;99.90;;;;;;5080206;28;20910;-70
2022/10/03 03:44:24;;;;;;;10.52;2.08;;;10.50;99.90;;;;;;5069704;28;20127;-71
2022/10/03 03:47:07;;;;;;;13.43;2.22;;;10.50;99.90;;;;;;5046297;28;20122;-71
2022/10/03 03:50:01;;;;;;;13.13;2.28;;;10.50;99.90;;;;;;5052453;28;20052;-70
2022/10/03 03:52:48;;;;;;;13.77;2.72;;;10.50;99.90;;;;;;5057732;28;20037;-69
2022/10/03 03:55:44;;;;;;;10.88;1.90;;;10.50;99.90;;;;;;5054418;28;20044;-70
2022/10/03 03:58:21;;;;;;;9.75;2.40;;;10.50;99.90;;;;;;5070633;28;20528;-69
2022/10/03 04:01:08;;;;;;;8.38;1.80;;;10.50;99.90;;;;;;5054289;28;20075;-70
2022/10/03 04:03:42;;;;;;;8.35;1.88;;;10.40;99.90;;;;;;5056209;28;20056;-69
2022/10/03 04:06:34;;;;;;;11.20;2.03;;;10.40;99.90;;;;;;5049140;28;20102;-70
2022/10/03 04:09:19;;;;;;;10.30;1.80;;;10.40;99.90;;;;;;5058804;28;20029;-70
2022/10/03 04:12:08;;;;;;;12.85;1.80;;;10.40;99.90;;;;;;5060889;28;20045;-71
2022/10/03 04:14:37;;;;;;;14.07;2.13;;;10.40;99.90;;;;;;5057007;28;20061;-69
2022/10/03 04:20:13;;;;;;;7.55;2.13;;;10.40;99.90;;;;;;5084403;28;20585;-69
2022/10/03 04:22:45;;;;;;;11.13;2.38;;;10.40;99.90;;;;;;5058920;28;20154;-69
2022/10/03 04:25:30;;;;;;;;;;;10.40;99.90;;;;;;5049148;28;20160;-70
2022/10/03 04:28:20;;;;;;;9.45;1.88;;;10.30;99.90;;;;;;5061071;28;20380;-70
2022/10/03 04:30:50;;;;;;;9.35;1.85;;;10.30;99.90;;;;;;5061596;28;20113;-70
2022/10/03 04:33:46;;;;;;;7.00;1.70;;;10.30;99.90;;;;;;5066216;28;20072;-70
2022/10/03 04:36:30;;;;;;;8.07;1.55;;;10.30;99.90;;;;;;5061040;28;20037;-70
2022/10/03 04:39:33;;;;;;;8.02;1.33;;;10.30;99.90;;;;;;5066285;28;20032;-69
2022/10/03 04:42:26;;;;;;;11.35;1.63;;;10.30;99.90;;;;;;5063959;28;20063;-70
2022/10/03 04:45:27;;;;;;;13.82;1.60;;;10.30;99.90;;;;;;5060784;28;20044;-69
2022/10/03 04:48:05;;;;;;;12.52;1.77;;;10.30;99.90;;;;;;5067453;28;20547;-70
2022/10/03 04:50:44;;;;;;;10.75;1.70;;;10.30;99.90;;;;;;5072668;28;20048;-70
2022/10/03 04:53:48;;;;;;;10.52;1.60;;;10.30;99.90;;;;;;5052685;28;20036;-69
2022/10/03 04:56:25;;;;;;;13.07;2.13;;;10.20;99.90;;;;;;5065626;28;20056;-69
2022/10/03 04:59:03;;;;;;;8.57;2.00;;;10.20;99.90;;;;;;5085148;28;20386;-69
2022/10/03 05:02:03;;;;;;;11.20;1.88;;;10.20;99.90;;;;;;5055211;28;20063;-70
2022/10/03 05:04:43;;;;;;;7.80;1.90;;;10.20;99.90;;;;;;5048429;28;20052;-70
2022/10/03 05:07:31;;;;;;;14.70;2.55;;;10.20;99.90;;;;;;5032565;28;20133;-70
2022/10/03 05:10:25;;;;;;;9.25;2.10;;;10.20;99.90;;;;;;5044013;28;20118;-70
2022/10/03 05:13:31;;;;;;;17.05;2.30;;;10.10;99.90;;;;;;5043812;28;20053;-69
2022/10/03 05:16:18;;;;;;;12.13;1.85;;;10.10;99.90;;;;;;5043807;28;20263;-69
2022/10/03 05:18:55;;;;;;;8.15;2.22;;;10.10;99.90;;;;;;5040758;28;20044;-69
2022/10/03 05:22:09;;;;;;;7.00;1.48;;;10.00;99.90;;;;;;5039955;28;20135;-69
2022/10/03 05:24:58;;;;;;;9.65;2.75;;;10.00;99.90;;;;;;5053167;28;20080;-69
2022/10/03 05:27:35;;;;;;;10.38;1.90;;;10.00;99.90;;;;;;5054825;28;20036;-69
2022/10/03 05:30:14;;;;;;;11.75;1.80;;;9.90;99.90;;;;;;5049433;28;20068;-69
2022/10/03 05:32:46;;;;;;;7.78;1.73;;;9.90;99.90;;;;;;5056678;28;20044;-69
2022/10/03 05:35:51;;;;;;;10.93;1.70;;;9.80;99.90;;;;;;5041479;28;20394;-69
2022/10/03 05:38:28;;;;;;;7.13;1.27;;;9.80;99.90;;;;;;5041918;28;20489;-69
2022/10/03 05:41:03;;;;;;;8.13;1.50;;;9.80;99.90;;;;;;5055503;28;20502;-69
2022/10/03 05:44:00;;;;;;;10.02;1.27;;;9.70;99.90;;;;;;5049268;28;21451;-72
2022/10/03 05:46:37;;;;;;;9.45;1.40;;;9.70;99.90;;;;;;5057662;28;20051;-71
2022/10/03 05:49:28;;;;;;;7.13;1.33;;;9.70;99.90;;;;;;5088523;28;20052;-70
2022/10/03 05:52:22;;;;;;;11.65;1.58;;;9.60;99.90;;;;;;5058885;28;20040;-70
2022/10/03 05:55:09;;;;;;;8.77;1.38;;;9.60;99.90;;;;;;5081942;28;20508;-69
2022/10/03 05:58:12;;;;;;;7.35;1.10;;;9.60;99.90;;;;;;5052277;28;20040;-69
2022/10/03 06:01:10;;;;;;;6.32;1.00;;;9.60;99.90;;;;;;5061463;28;20147;-70
2022/10/03 06:03:58;;;;;;;7.90;1.50;;;9.50;99.90;;;;;;5053952;28;20047;-70
2022/10/03 06:06:54;;;;;;;6.88;1.50;;;9.50;99.90;;;;;;5059460;28;20161;-70
2022/10/03 06:09:35;;;;;;;9.10;1.70;;;9.50;99.90;;;;;;5049676;28;20509;-70
2022/10/03 06:12:01;;;;;;;10.20;2.33;;;9.50;99.90;;;;;;5069771;28;20049;-70
2022/10/03 06:14:34;;;;;;;12.00;2.20;;;9.50;99.90;;;;;;5059758;28;20056;-69
2022/10/03 06:17:41;;;;;;;10.82;2.13;;;9.50;99.90;;;;;;5058234;28;20052;-69
2022/10/03 06:20:31;;;;;;;9.07;1.80;;;9.50;99.90;;;;;;5058527;28;20453;-71
2022/10/03 06:23:15;;;;;;;8.50;1.50;;;9.50;99.90;;;;;;5058623;28;20394;-70
2022/10/03 06:26:00;;;;;;;6.35;1.65;;;9.50;99.90;;;;;;5078748;28;20135;-70
2022/10/03 06:28:34;;;;;;;9.77;2.08;;;9.60;99.90;;;;;;5039270;28;20059;-70
2022/10/03 06:31:10;;;;;;;10.45;2.00;;;9.60;99.90;;;;;;5057222;28;20044;-69
2022/10/03 06:34:14;;;;;;;9.77;1.63;;;9.60;99.90;;;;;;5047086;28;20077;-70
2022/10/03 06:36:40;;;;;;;9.93;1.58;;;9.70;99.90;;;;;;5065378;28;20119;-69
2022/10/03 06:39:50;;;;;;;12.40;2.00;;;9.70;99.90;;;;;;5059272;28;20053;-69
2022/10/03 06:42:36;;;;;;;12.35;2.20;;;9.70;99.90;;;;;;5023667;28;20132;-70
2022/10/03 06:45:29;;;;;;;13.75;2.40;;;9.70;99.90;;;;;;5001922;28;20057;-69
2022/10/03 06:48:12;;;;;;;13.85;1.92;;;9.80;99.90;;;;;;5036086;28;20952;-71
2022/10/03 06:50:58;;;;;;;12.52;2.30;;;9.80;99.90;;;;;;5037989;28;20063;-71
2022/10/03 06:54:15;;;;;;;8.98;1.92;;;9.80;99.90;;;;;;5058493;28;20044;-70
2022/10/03 06:57:25;;;;;;;14.18;2.28;;;9.90;99.90;;;;;;5055554;28;20409;-69
2022/10/03 07:00:00;;;;;;;13.68;2.15;;;10.10;99.90;;;;;;5075542;28;20638;-71
2022/10/03 07:02:50;;;;;;;10.07;1.70;;;10.20;99.90;;;;;;5052261;28;20056;-71
2022/10/03 07:05:39;;;;;;;10.15;2.30;;;10.30;99.90;;;;;;5052640;28;20105;-70
2022/10/03 07:08:17;;;;;;;13.05;2.55;;;10.50;99.90;;;;;;5042367;28;20052;-70
2022/10/03 07:11:20;;;;;;;10.98;2.28;;;10.70;99.90;;;;;;5056802;28;20062;-70
2022/10/03 07:14:11;;;;;;;11.25;2.20;;;10.80;99.90;;;;;;5058748;28;20067;-69
2022/10/03 07:16:46;;;;;;;12.52;1.77;;;11.00;99.90;;;;;;5040755;28;20603;-70
2022/10/03 07:19:30;;;;;;;6.95;1.60;;;11.10;99.90;;;;;;5054280;28;20464;-70
2022/10/03 07:22:02;;;;;;;9.82;1.83;;;11.20;99.90;;;;;;5039848;28;20087;-70
2022/10/03 07:24:33;;;;;;;8.73;1.63;;;11.40;99.90;;;;;;5056776;28;20532;-71
2022/10/03 07:27:31;;;;;;;10.10;1.88;;;11.50;99.90;;;;;;5072857;28;20167;-69
2022/10/03 07:30:06;;;;;;;9.95;1.52;;;11.60;99.90;;;;;;5052543;28;20045;-71
2022/10/03 07:32:54;;;;;;;12.20;1.80;;;11.70;99.90;;;;;;5049896;28;20048;-70
2022/10/03 07:38:58;;;;;;;12.02;1.52;;;11.90;99.90;;;;;;5050567;28;20037;-70
2022/10/03 07:41:51;;;;;;;11.57;1.75;;;12.10;99.90;;;;;;5052026;28;20505;-71
2022/10/03 07:44:41;;;;;;;10.95;1.48;;;12.20;99.90;;;;;;5036743;28;20045;-70
2022/10/03 07:47:31;;;;;;;9.40;1.73;;;12.30;99.90;;;;;;5058630;28;20503;-70
2022/10/03 07:50:18;;;;;;;11.13;1.63;;;12.40;99.90;;;;;;5052882;28;20127;-71
2022/10/03 07:52:59;;;;;;;9.30;1.58;;;12.50;99.90;;;;;;5047979;28;20053;-71
2022/10/03 07:56:01;;;;;;;9.48;1.63;;;12.70;99.90;;;;;;5051519;28;20045;-70
2022/10/03 07:59:05;;;;;;;12.80;1.75;;;12.80;99.90;;;;;;5035490;28;20053;-71
2022/10/03 08:01:41;;;;;;;6.72;1.00;;;13.00;99.90;;;;;;5039152;28;20072;-70
2022/10/03 08:04:22;;;;;;;7.82;1.40;;;13.10;99.90;;;;;;5058627;28;20068;-70
2022/10/03 08:07:12;;;;;;;9.82;1.58;;;13.30;99.90;;;;;;5078442;28;20056;-71
2022/10/03 08:10:01;;;;;;;8.35;1.65;;;13.40;99.90;;;;;;5047311;28;20114;-70
2022/10/03 08:12:56;;;;;;;10.15;1.75;;;13.50;99.90;;;;;;5047374;28;20613;-71
2022/10/03 08:15:25;;;;;;;9.55;1.67;;;13.60;99.90;;;;;;5051980;28;20056;-70
2022/10/03 08:18:00;;;;;;;9.30;1.60;;;13.80;99.90;;;;;;5049545;28;20770;-71
2022/10/03 08:20:40;;;;;;;11.55;1.88;;;13.90;99.90;;;;;;5053916;28;20417;-70
2022/10/03 08:23:42;;;;;;;11.00;1.92;;;14.00;99.90;;;;;;5053813;28;20048;-70
2022/10/03 08:26:29;;;;;;;17.80;2.30;;;14.10;99.90;;;;;;5046930;28;20080;-70
2022/10/03 08:29:14;;;;;;;9.27;1.75;;;14.20;99.90;;;;;;5066323;28;20137;-70
2022/10/03 08:32:16;;;;;;;12.45;2.00;;;14.30;99.90;;;;;;5052661;28;20127;-70
2022/10/03 08:35:05;;;;;;;11.68;1.83;;;14.40;99.90;;;;;;5027384;28;20076;-72
2022/10/03 08:38:00;;;;;;;11.38;1.85;;;14.50;99.90;;;;;;5031457;28;20580;-70
2022/10/03 08:40:41;;;;;;;9.80;1.33;;;14.60;99.90;;;;;;5049962;28;20120;-70
2022/10/03 08:43:13;;;;;;;13.98;1.73;;;14.70;99.90;;;;;;5047270;28;20595;-70
2022/10/03 08:46:06;;;;;;;6.85;1.40;;;14.70;99.90;;;;;;5045143;28;20101;-70
2022/10/03 08:49:09;;;;;;;10.90;1.30;;;14.80;99.90;;;;;;5067875;28;20063;-70
2022/10/03 08:51:41;;;;;;;10.95;1.42;;;14.90;99.90;;;;;;5057957;28;20060;-70
2022/10/03 08:54:50;;;;;;;10.10;1.50;;;15.00;99.90;;;;;;5044948;28;20220;-70
2022/10/03 08:57:49;;;;;;;8.23;1.35;;;15.10;99.90;;;;;;5055693;28;20489;-70
2022/10/03 09:00:21;;;;;;;7.25;1.50;;;15.10;99.90;;;;;;5053016;28;20535;-70
2022/10/03 09:03:06;;;;;;;;;;;15.20;99.90;;;;;;5054181;28;20395;-70
2022/10/03 09:06:07;;;;;;;10.07;1.42;;;15.20;99.90;;;;;;5053817;28;19928;-70
2022/10/03 09:08:55;;;;;;;6.90;1.08;;;15.20;99.90;;;;;;5042288;28;20400;-71
2022/10/03 09:11:53;;;;;;;8.38;1.40;;;15.30;99.90;;;;;;5054651;28;20041;-71
2022/10/03 09:14:48;;;;;;;10.32;1.52;;;15.30;99.90;;;;;;5057744;28;20079;-71
2022/10/03 09:17:35;;;;;;;12.10;1.30;;;15.30;99.90;;;;;;5054309;28;20044;-70
2022/10/03 09:20:07;;;;;;;10.90;1.70;;;15.30;99.90;;;;;;5061678;28;20518;-71
2022/10/03 09:22:55;;;;;;;8.88;1.33;;;15.30;99.90;;;;;;5044375;28;20084;-71
2022/10/03 09:25:52;;;;;;;8.38;1.42;;;15.40;99.90;;;;;;5054420;28;20757;-71
2022/10/03 09:28:17;;;;;;;9.40;1.65;;;15.40;99.90;;;;;;5077756;28;20481;-71
2022/10/03 09:31:02;;;;;;;12.63;1.50;;;15.40;99.90;;;;;;5048370;28;20045;-71
2022/10/03 09:34:06;;;;;;;8.73;1.60;;;15.50;99.90;;;;;;5049485;28;20785;-71
2022/10/03 09:36:41;;;;;;;13.10;1.88;;;15.50;99.90;;;;;;5067918;28;20449;-72
2022/10/03 09:39:18;;;;;;;9.13;1.30;;;15.60;99.90;;;;;;5064737;28;20128;-71
2022/10/03 09:41:59;;;;;;;9.98;1.50;;;15.60;99.90;;;;;;5061094;28;20202;-71
2022/10/03 09:44:58;;;;;;;5.68;1.20;;;15.60;99.90;;;;;;5071471;28;20423;-71
2022/10/03 09:47:36;;;;;;;10.13;1.33;;;15.60;99.90;;;;;;5078716;28;20045;-71
2022/10/03 09:50:39;;;;;;;10.80;1.30;;;15.70;99.90;;;;;;5054292;28;20609;-71
2022/10/03 09:53:40;;;;;;;6.85;1.17;;;15.70;99.90;;;;;;5063457;28;20049;-71
2022/10/03 09:56:30;;;;;;;10.33;2.17;;;15.70;99.90;;;;;;5062993;28;20560;-69
2022/10/03 09:59:23;;;;;;;10.85;1.45;;;15.80;99.90;;;;;;5062419;28;20057;-70
2022/10/03 10:02:30;;;;;;;8.60;1.20;;;15.80;99.90;;;;;;5061871;28;20040;-70
2022/10/03 10:05:01;;;;;;;10.23;1.48;;;15.80;99.90;;;;;;5047012;28;20052;-70
2022/10/03 10:07:57;;;;;;;6.60;1.45;;;15.80;99.90;;;;;;5063970;28;20055;-70
2022/10/03 10:10:45;;;;;;;10.50;1.02;;;15.90;99.90;;;;;;5064235;28;20503;-71
2022/10/03 10:13:29;;;;;;;8.70;1.48;;;15.90;99.90;;;;;;5048495;28;20054;-70
2022/10/03 10:16:13;;;;;;;7.95;1.02;;;15.90;99.90;;;;;;5065574;28;20048;-70
2022/10/03 10:19:11;;;;;;;8.57;1.30;;;15.90;99.90;;;;;;5062286;28;20076;-71
2022/10/03 10:21:49;;;;;;;7.28;1.05;;;15.90;99.90;;;;;;5038850;28;20140;-70
2022/10/03 10:24:52;;;;;;;8.00;1.35;;;15.90;99.90;;;;;;5055633;28;20044;-70
2022/10/03 10:27:47;;;;;;;6.20;1.10;;;15.90;99.90;;;;;;5063678;28;20057;-70
2022/10/03 10:30:13;;;;;;;8.10;1.35;;;15.80;99.90;;;;;;5065304;28;20513;-70
2022/10/03 10:33:11;;;;;;;10.23;1.40;;;15.80;99.90;;;;;;5066283;28;20446;-70
2022/10/03 10:36:34;;;;;;;6.07;1.38;;;15.80;99.90;;;;;;5055025;28;20119;-71
2022/10/03 10:39:30;;;;;;;9.10;1.20;;;15.80;99.90;;;;;;5019409;28;20049;-70
2022/10/03 10:42:14;;;;;;;9.23;1.27;;;15.80;99.90;;;;;;5020657;28;20135;-70
2022/10/03 10:44:59;;;;;;;7.03;1.38;;;15.90;99.90;;;;;;5033874;28;20049;-71
2022/10/03 10:47:26;;;;;;;9.93;1.35;;;15.80;99.90;;;;;;5050210;28;20305;-70
2022/10/03 10:50:03;;;;;;;9.90;1.55;;;15.90;99.90;;;;;;5066746;28;20098;-71
2022/10/03 10:53:14;;;;;;;7.78;1.42;;;16.00;99.90;;;;;;5079789;28;20097;-71
2022/10/03 10:56:17;;;;;;;9.13;1.10;;;16.00;99.90;;;;;;5026295;28;20076;-70
2022/10/03 10:58:58;;;;;;;8.90;1.35;;;16.00;99.90;;;;;;5060979;28;20055;-71
2022/10/03 11:02:13;;;;;;;10.30;1.55;;;16.10;99.90;;;;;;5058562;28;20040;-71
2022/10/03 11:04:57;;;;;;;6.90;1.15;;;16.10;99.90;;;;;;5079799;28;20091;-70
2022/10/03 11:08:14;;;;;;;16.60;2.00;;;16.10;99.90;;;;;;5039736;28;20067;-71
2022/10/03 11:10:58;;;;;;;8.63;1.13;;;16.20;99.90;;;;;;5066546;28;21439;-71
2022/10/03 11:13:42;;;;;;;6.05;1.45;;;16.30;99.90;;;;;;5034223;28;20063;-70
2022/10/03 11:16:42;;;;;;;7.85;1.40;;;16.30;99.90;;;;;;5052211;28;20055;-70
2022/10/03 11:19:45;;;;;;;10.02;1.27;;;16.30;99.90;;;;;;5054769;28;20088;-70
2022/10/03 11:22:35;;;;;;;5.20;1.10;;;16.40;99.90;;;;;;5058271;28;20044;-71
2022/10/03 11:25:32;;;;;;;11.38;1.50;;;16.40;99.90;;;;;;5056906;28;20056;-71
2022/10/03 11:28:16;;;;;;;9.25;1.55;;;16.40;99.90;;;;;;5053752;28;20412;-71
2022/10/03 11:31:08;;;;;;;9.80;1.23;;;16.50;99.90;;;;;;5051395;28;20083;-70
2022/10/03 11:33:52;;;;;;;;;;;16.50;99.90;;;;;;5058702;28;20044;-71
2022/10/03 11:36:55;;;;;;;6.20;1.05;;;16.50;99.90;;;;;;5060044;28;19932;-71
2022/10/03 11:39:41;;;;;;;5.43;1.05;;;16.60;99.90;;;;;;5059182;28;20041;-71
2022/10/03 11:42:40;;;;;;;8.35;1.40;;;16.60;99.90;;;;;;5038104;28;20168;-70
2022/10/03 11:45:31;;;;;;;8.65;1.92;;;16.70;99.90;;;;;;5080372;28;20052;-70
2022/10/03 11:48:09;;;;;;;8.75;1.55;;;16.80;99.90;;;;;;5055883;28;20044;-71
2022/10/03 11:50:44;;;;;;;9.70;1.25;;;16.70;99.90;;;;;;5051329;28;20067;-71
2022/10/03 11:53:15;;;;;;;9.98;1.52;;;16.80;99.90;;;;;;5037889;28;20139;-71
2022/10/03 11:56:01;;;;;;;6.22;1.35;;;16.80;99.90;;;;;;5038881;28;20079;-71
2022/10/03 11:58:32;;;;;;;6.45;1.05;;;16.80;99.90;;;;;;5067221;28;20480;-71
2022/10/03 12:01:21;;;;;;;7.35;1.30;;;16.70;99.90;;;;;;5052858;28;20461;-71
2022/10/03 12:04:09;;;;;;;5.05;1.08;;;16.80;99.90;;;;;;5039654;28;20048;-71
2022/10/03 12:10:15;;;;;;;8.38;0.98;;;16.80;99.90;;;;;;5054337;28;20045;-72
2022/10/03 12:12:53;;;;;;;4.45;1.13;;;16.80;99.90;;;;;;5087024;27;20049;-71
2022/10/03 12:15:25;;;;;;;6.95;1.00;;;16.80;99.90;;;;;;5055008;28;20049;-71
2022/10/03 12:18:22;;;;;;;10.15;1.45;;;16.80;99.90;;;;;;5053136;28;20051;-71
2022/10/03 12:21:06;;;;;;;7.88;1.20;;;16.80;99.90;;;;;;5052623;28;20547;-72
2022/10/03 12:24:11;;;;;;;9.50;1.52;;;16.90;99.90;;;;;;5055985;28;20056;-72
2022/10/03 12:26:59;;;;;;;4.63;0.98;;;16.90;99.90;;;;;;5054727;28;20461;-71
2022/10/03 12:29:31;;;;;;;12.23;1.20;;;16.90;99.90;;;;;;5055030;28;20536;-71
2022/10/03 12:32:21;;;;;;;7.30;1.05;;;16.90;99.90;;;;;;5047112;28;20091;-71
2022/10/03 12:34:56;;;;;;;7.30;1.52;;;17.00;99.90;;;;;;5086185;28;20099;-71
2022/10/03 12:37:40;;;;;;;7.30;1.23;;;17.00;99.90;;;;;;5086265;28;20051;-71
2022/10/03 12:40:19;;;;;;;7.63;1.23;;;17.00;99.90;;;;;;5043605;28;20606;-71
2022/10/03 12:42:57;;;;;;;10.43;2.00;;;17.10;99.90;;;;;;5059227;28;20041;-71
2022/10/03 12:45:53;;;;;;;9.75;1.20;;;17.10;99.90;;;;;;5058692;28;21150;-71
2022/10/03 12:48:31;;;;;;;6.65;1.00;;;17.10;99.90;;;;;;5054438;28;20567;-72
2022/10/03 12:51:16;;;;;;;6.60;1.10;;;17.00;99.90;;;;;;5067366;28;20105;-71
2022/10/03 12:54:17;;;;;;;6.35;1.05;;;17.00;99.90;;;;;;5054421;28;20040;-71
2022/10/03 12:57:19;;;;;;;4.85;1.10;;;17.00;99.90;;;;;;5056696;28;20418;-72
2022/10/03 13:00:04;;;;;;;7.97;1.30;;;16.90;99.90;;;;;;5053630;28;20063;-71
2022/10/03 13:02:44;;;;;;;8.52;1.10;;;16.90;99.90;;;;;;5056885;28;20047;-72
2022/10/03 13:05:20;;;;;;;5.57;1.05;;;16.90;99.90;;;;;;5053362;28;20118;-72
2022/10/03 13:07:55;;;;;;;5.82;1.15;;;16.90;99.90;;;;;;5043021;28;20489;-72
2022/10/03 13:10:46;;;;;;;6.07;0.82;;;16.90;99.90;;;;;;5085086;28;20162;-71
2022/10/03 13:13:26;;;;;;;6.20;1.20;;;16.90;99.90;;;;;;5087087;28;20074;-71
2022/10/03 13:16:15;;;;;;;5.22;1.30;;;16.90;99.90;;;;;;5057886;28;20071;-72
2022/10/03 13:18:53;;;;;;;7.03;1.23;;;16.90;99.90;;;;;;5069538;28;20040;-71
2022/10/03 13:21:22;;;;;;;6.15;1.05;;;16.90;99.90;;;;;;5041623;28;20049;-72
2022/10/03 13:23:59;;;;;;;8.63;1.60;;;16.90;99.90;;;;;;5061153;28;20112;-72
2022/10/03 13:27:02;;;;;;;7.65;1.10;;;16.90;99.90;;;;;;5063980;28;20079;-71
2022/10/03 13:29:39;;;;;;;10.23;1.50;;;17.00;99.90;;;;;;5061358;28;20052;-71
2022/10/03 13:32:23;;;;;;;5.53;1.25;;;17.00;99.90;;;;;;5056963;28;20059;-72
2022/10/03 13:35:57;;;;;;;8.60;1.20;;;17.00;99.90;;;;;;5059110;28;20053;-71
2022/10/03 13:38:06;;;;;;;8.32;1.17;;;17.00;99.90;;;;;;5061553;28;20048;-71
2022/10/03 13:40:42;;;;;;;5.78;1.20;;;17.00;99.90;;;;;;5065008;28;20037;-71
2022/10/03 13:43:15;;;;;;;8.88;1.75;;;17.00;99.90;;;;;;5062041;28;20057;-72
2022/10/03 13:45:45;;;;;;;8.80;1.30;;;17.10;99.90;;;;;;5044097;28;20067;-71
2022/10/03 13:48:20;;;;;;;5.43;1.10;;;17.00;99.90;;;;;;5046249;28;20087;-71
2022/10/03 13:51:13;;;;;;;4.97;1.02;;;17.00;99.90;;;;;;5059514;28;20071;-71
2022/10/03 13:53:47;;;;;;;6.53;1.10;;;17.00;99.90;;;;;;5069299;28;20122;-71
2022/10/03 13:56:43;;;;;;;6.82;1.33;;;17.00;99.90;;;;;;5066590;28;20058;-72
2022/10/03 13:59:25;;;;;;;7.82;1.38;;;17.00;99.90;;;;;;5061686;28;20051;-71
2022/10/03 14:02:28;;;;;;;5.75;1.10;;;17.00;99.90;;;;;;5060566;28;20044;-72
2022/10/03 14:04:53;;;;;;;7.80;1.50;;;17.00;99.90;;;;;;5092392;28;20052;-72
2022/10/03 14:07:44;;;;;;;4.90;1.25;;;17.00;99.90;;;;;;5039540;28;20055;-72
2022/10/03 14:10:49;;;;;;;8.90;1.25;;;17.00;99.90;;;;;;5073149;28;20068;-71
2022/10/03 14:13:42;;;;;;;8.38;1.27;;;17.00;99.90;;;;;;5060379;28;20069;-71
2022/10/03 14:16:26;;;;;;;7.05;1.35;;;17.00;99.90;;;;;;5060448;28;20049;-72
2022/10/03 14:19:10;;;;;;;7.20;1.25;;;17.00;99.90;;;;;;5037277;28;20740;-72
2022/10/03 14:21:54;;;;;;;7.38;1.13;;;17.00;99.90;;;;;;5060799;28;20047;-71
2022/10/03 14:24:45;;;;;;;7.25;1.08;;;16.90;99.90;;;;;;5052909;28;20082;-72
2022/10/03 14:27:30;;;;;;;8.10;1.33;;;16.90;99.90;;;;;;5069696;28;20039;-72
2022/10/03 14:30:16;;;;;;;5.68;1.10;;;16.90;99.90;;;;;;5041889;28;20056;-71
2022/10/03 14:32:46;;;;;;;8.30;1.40;;;16.90;99.90;;;;;;5055050;28;20072;-71
2022/10/03 14:35:37;;;;;;;8.15;1.38;;;17.00;99.90;;;;;;5057115;28;20052;-72
2022/10/03 14:38:56;;;;;;;9.02;1.60;;;16.90;99.90;;;;;;5061982;28;20094;-72
2022/10/03 14:41:20;;;;;;;;;;;17.00;99.90;;;;;;5057609;28;20405;-72